Albert, Texas
Current Conditions -  °F | °C
As of 8:35 PM on Wednesday 22 Oct 2014 (Local Time) from KT82 Reporting Station
Scattered Clouds Scattered Clouds  
Wind Chill: 66°   Ceiling: Unl
Heat Index: 66°   Visibility: 10mi
Dew Point: 63°   Wind: 3mph
Humidity: 89%   Direction: 180°S
Pressure: 30.12"   Gusts: NA
Location:  30.2109°N, 98.6562°W
Report Text: KT82 230135Z AUTO 18003KT 10SM SCT120 19/17 A3012 RMK AO2 P0001 T01900171
Loading
Personal Weather Stations






























Interactive Weather Map
Tropical Storm Tracking
New forecast layout! Learn more

10-Day Weather Forecast

Advertisements
Track Severe Weather on mobile